Eagle — WBP2187 — position and weather

sailwx.info

Track history (hours):
 
Tides and Currents Weather Stations Pressure Air Temp Water Temp Dewpoint Dewpoint Depression Visibility Wind Speed Wind Dir Waves Ship Positions

Eagle

Owner: Harley Marine Services, INC, SEATTLE, WA. More information available from US FCC via Universal Licensing System and Coast Guard Vessel Documentation Center.

Last reported at 2015-Jul-03 12:31 UTC. Time now 2015-Jul-03 17:18 UTC.
Position N 33°47' W 118°38'.

Length 32 m; draft 4 m.

Type: Tow > 200 m length. MMSI: 366978690.

Date/timePositionNaut miles runAvg speedWind from/ knotsBaromVisibWave heightAir tempDewpointWater temp
2015-Jul-03 12:31N 33°47' W 118°38'9 7.2
2015-Jul-03 11:15N 33°43' W 118°29'5 7.2
2015-Jul-03 10:33N 33°40' W 118°23'6 5.8
2015-Jul-03 09:34N 33°39' W 118°17'4 4.2
2015-Jul-03 08:33N 33°43' W 118°15'3 2.6
2015-Jul-03 07:33N 33°45' W 118°16'0 0.0
2015-Jul-03 06:33N 33°45' W 118°16'0 0.0
2015-Jul-03 05:34N 33°45' W 118°16'0 0.0
2015-Jul-03 04:34N 33°45' W 118°16'0 0.0
2015-Jul-03 03:33N 33°45' W 118°16'0 0.0
2015-Jul-03 02:33N 33°45' W 118°16'0 0.0
2015-Jul-03 01:33N 33°45' W 118°16'0 0.0
2015-Jul-03 00:33N 33°45' W 118°16'0 0.0
2015-Jul-02 23:33N 33°45' W 118°16'0 0.0
2015-Jul-02 22:33N 33°45' W 118°16'0 0.0
2015-Jul-02 21:33N 33°45' W 118°16'0 0.0
2015-Jul-02 20:34N 33°45' W 118°16'0 0.0
2015-Jul-02 19:34N 33°45' W 118°16'0 0.0
2015-Jul-02 18:33N 33°45' W 118°16'0 0.0
2015-Jul-02 17:33N 33°45' W 118°16'0 0.0
2015-Jul-02 16:34N 33°45' W 118°16'0 0.0
2015-Jul-02 15:33N 33°45' W 118°16'0 0.0
2015-Jul-02 14:34N 33°45' W 118°16'0 0.0
2015-Jul-02 13:33N 33°45' W 118°16'0 0.0
2015-Jul-02 12:34N 33°45' W 118°16'0 0.0
2015-Jul-02 11:33N 33°45' W 118°16'0 0.0
2015-Jul-02 10:33N 33°45' W 118°16'0 0.0
2015-Jul-02 09:34N 33°45' W 118°16'0 0.0
2015-Jul-02 08:34N 33°45' W 118°16'0 0.0
2015-Jul-02 07:33N 33°45' W 118°16'0 0.0
2015-Jul-02 06:33N 33°45' W 118°16'0 0.0
2015-Jul-02 05:34N 33°45' W 118°16'0 0.0
2015-Jul-02 04:33N 33°45' W 118°16'0 0.0
2015-Jul-02 03:33N 33°45' W 118°16'0 0.0
2015-Jul-02 02:34N 33°45' W 118°16'0 0.0
2015-Jul-02 01:34N 33°45' W 118°16'0 0.0
2015-Jul-02 00:33N 33°45' W 118°16'0 0.0
2015-Jul-01 23:33N 33°45' W 118°16'0 0.0
2015-Jul-01 22:33N 33°45' W 118°16'0 0.0
2015-Jul-01 21:33N 33°45' W 118°16'0 0.0
2015-Jul-01 20:33N 33°45' W 118°16'0 0.0
2015-Jul-01 19:33N 33°45' W 118°16'0 0.0
2015-Jul-01 18:34N 33°45' W 118°16'0 0.0
2015-Jul-01 17:33N 33°45' W 118°16'0 0.0
2015-Jul-01 16:34N 33°45' W 118°16'0 0.0
2015-Jul-01 15:34N 33°45' W 118°16'0 0.0
2015-Jul-01 14:33N 33°45' W 118°16'0 0.0
2015-Jul-01 13:33N 33°45' W 118°16'0 0.0
2015-Jul-01 12:33N 33°45' W 118°16'0 0.0
2015-Jul-01 11:33N 33°45' W 118°16'0 0.0
2015-Jul-01 10:33N 33°45' W 118°16'0 0.0
2015-Jul-01 09:34N 33°45' W 118°16'0 0.0
2015-Jul-01 08:33N 33°45' W 118°16'0 0.0
2015-Jul-01 07:33N 33°45' W 118°16'0 0.0
2015-Jul-01 06:33N 33°45' W 118°16'0 0.0
2015-Jul-01 05:33N 33°45' W 118°16'0 0.0
2015-Jul-01 04:34N 33°45' W 118°16'0 0.0
2015-Jul-01 03:33N 33°45' W 118°16'0 0.0
2015-Jul-01 02:33N 33°45' W 118°16'0 0.0
2015-Jul-01 01:34N 33°45' W 118°16'0 0.0
2015-Jul-01 00:33N 33°45' W 118°16'0 0.0
2015-Jun-30 23:33N 33°45' W 118°16'0 0.0
2015-Jun-30 22:33N 33°45' W 118°16'0 0.0
2015-Jun-30 21:33N 33°45' W 118°16'0 0.0
2015-Jun-30 20:33N 33°45' W 118°16'0 0.0
2015-Jun-30 19:33N 33°45' W 118°16'0 0.0
2015-Jun-30 18:33N 33°45' W 118°16'0 0.0
2015-Jun-30 17:33N 33°45' W 118°16'0 0.0
2015-Jun-30 16:33N 33°45' W 118°16'0 0.0
2015-Jun-30 15:33N 33°45' W 118°16'0 0.0
2015-Jun-30 14:33N 33°45' W 118°16'0 0.0
2015-Jun-30 13:33N 33°45' W 118°16'0 0.0
2015-Jun-30 12:33N 33°45' W 118°16'0 0.0
2015-Jun-30 11:33N 33°45' W 118°16'0 0.0
2015-Jun-30 10:33N 33°45' W 118°16'0 0.0
2015-Jun-30 09:33N 33°45' W 118°16'0 0.0
2015-Jun-30 08:33N 33°45' W 118°16'0 0.0
2015-Jun-30 07:33N 33°45' W 118°16'0 0.0
2015-Jun-30 06:33N 33°45' W 118°16'0 0.0
2015-Jun-30 05:33N 33°45' W 118°16'0 0.0
2015-Jun-30 04:33N 33°45' W 118°16'0 0.0
2015-Jun-30 03:33N 33°45' W 118°16'0 0.0
2015-Jun-30 02:33N 33°45' W 118°16'0 0.0
2015-Jun-30 01:33N 33°45' W 118°16'0 0.0
2015-Jun-30 00:33N 33°45' W 118°16'0 0.0
2015-Jun-29 23:33N 33°45' W 118°16'0 0.0
2015-Jun-29 22:33N 33°45' W 118°16'0 0.0
2015-Jun-29 21:33N 33°45' W 118°16'0 0.0
2015-Jun-29 20:33N 33°45' W 118°16'1 0.8
2015-Jun-29 19:33N 33°45' W 118°17'1 1.0
2015-Jun-29 18:33N 33°44' W 118°16'0 0.0
2015-Jun-29 17:33N 33°44' W 118°16'0 0.0
2015-Jun-29 16:33N 33°44' W 118°16'0 0.0
2015-Jun-29 15:33N 33°44' W 118°16'0 0.0
2015-Jun-29 14:33N 33°44' W 118°16'0 0.0
2015-Jun-29 13:33N 33°44' W 118°16'0 0.0
2015-Jun-29 12:33N 33°44' W 118°16'0 0.0
2015-Jun-29 11:33N 33°44' W 118°16'0 0.0
2015-Jun-29 10:33N 33°44' W 118°16'0 0.0
2015-Jun-29 09:33N 33°44' W 118°16'0 0.0
2015-Jun-29 08:33N 33°44' W 118°16'0 0.0
2015-Jun-29 07:33N 33°44' W 118°16'0 0.0
2015-Jun-29 06:33N 33°44' W 118°16'0 0.0
2015-Jun-29 05:33N 33°44' W 118°16'0 0.0
2015-Jun-29 04:33N 33°44' W 118°16'0 0.0
2015-Jun-29 03:33N 33°44' W 118°16'0 0.0
2015-Jun-29 02:33N 33°44' W 118°16'0 0.1
2015-Jun-29 01:33N 33°44' W 118°16'0 0.0
2015-Jun-29 00:33N 33°44' W 118°16'0 0.0
2015-Jun-28 23:33N 33°44' W 118°16'0 0.1
2015-Jun-28 22:33N 33°44' W 118°16'0 0.0
2015-Jun-28 21:33N 33°44' W 118°16'0 0.0
2015-Jun-28 20:33N 33°44' W 118°16'0 0.0
2015-Jun-28 19:33N 33°44' W 118°16'0 0.0
2015-Jun-28 18:33N 33°44' W 118°16'0 0.0
2015-Jun-28 17:33N 33°44' W 118°16'0 0.0
2015-Jun-28 16:32N 33°44' W 118°16'0 0.0
2015-Jun-28 15:33N 33°44' W 118°16'0 0.0
2015-Jun-28 13:24N 33°44' W 118°16'0 0.0
2015-Jun-28 11:26N 33°44' W 118°16'2 2.5
2015-Jun-28 10:33N 33°42' W 118°15'5 4.2
2015-Jun-28 09:26N 33°37' W 118°16'6 5.5
2015-Jun-28 08:23N 33°37' W 118°23'1 0.9
2015-Jun-28 07:07N 33°37' W 118°24'3 4.7
2015-Jun-28 06:33N 33°39' W 118°27'7 5.2
2015-Jun-28 05:09N 33°42' W 118°34'3 5.6
2015-Jun-28 04:33N 33°44' W 118°38'11 5.7
2015-Jun-28 02:33N 33°50' W 118°50'5 4.6
2015-Jun-28 01:33N 33°52' W 118°55'3 1.0
2015-Jun-27 22:06N 33°55' W 118°55'2 3.1
2015-Jun-27 21:33N 33°54' W 118°54'2 2.1
2015-Jun-27 20:33N 33°52' W 118°55'6 4.9
2015-Jun-27 19:17N 33°55' W 119°02'4 5.1
2015-Jun-27 18:33N 33°57' W 119°06'5 5.2
2015-Jun-27 17:33N 33°60' W 119°11'5 5.2
2015-Jun-27 16:32N 34°02' W 119°16'146 5.8
2015-Jun-26 15:24N 35°24' W 121°44'6 6.6
2015-Jun-26 14:32N 35°28' W 121°48'7 6.8
2015-Jun-26 13:27N 35°34' W 121°53'8 6.6
2015-Jun-26 12:10N 35°41' W 121°59'4 6.9
2015-Jun-26 11:33N 35°44' W 122°02'7 7.3
2015-Jun-26 10:33N 35°50' W 122°08'7 6.6
2015-Jun-26 09:32N 35°56' W 122°12'6 6.3
2015-Jun-26 08:33N 36°01' W 122°17'7 6.6
2015-Jun-26 07:33N 36°06' W 122°22'7 6.7
2015-Jun-26 06:33N 36°11' W 122°26'6 6.2
2015-Jun-26 05:33N 36°17' W 122°31'6 6.2
2015-Jun-26 04:33N 36°22' W 122°34'6 6.0
2015-Jun-26 03:33N 36°28' W 122°37'6 6.0
2015-Jun-26 02:33N 36°33' W 122°40'6 6.1
2015-Jun-26 01:33N 36°39' W 122°43'7 6.5
2015-Jun-26 00:33N 36°45' W 122°47'6 6.5
2015-Jun-25 23:33N 36°51' W 122°50'6 6.4
2015-Jun-25 22:33N 36°56' W 122°53'6 6.4
2015-Jun-25 21:33N 37°02' W 122°56'7 6.4
2015-Jun-25 20:32N 37°08' W 122°59'6 6.0
2015-Jun-25 19:33N 37°14' W 123°01'6 6.2
2015-Jun-25 18:33N 37°20' W 123°04'8 6.5
2015-Jun-25 17:18N 37°27' W 123°08'5 6.0
2015-Jun-25 16:32N 37°31' W 123°06'5 5.4
2015-Jun-25 15:33N 37°35' W 123°02'5 5.1
2015-Jun-25 14:33N 37°38' W 122°57'5 5.4
2015-Jun-25 13:33N 37°41' W 122°51'5 5.1
2015-Jun-25 12:31N 37°44' W 122°45'5 4.9
2015-Jun-25 11:33N 37°46' W 122°40'5 4.7
2015-Jun-25 10:33N 37°47' W 122°34'5 5.4
2015-Jun-25 09:33N 37°49' W 122°28'5 4.6
2015-Jun-25 08:33N 37°54' W 122°25'2 1.7
2015-Jun-25 07:32N 37°55' W 122°25'0 0.0
2015-Jun-25 06:32N 37°55' W 122°25'0 0.1
2015-Jun-25 05:33N 37°55' W 122°25'0 0.0
2015-Jun-25 04:33N 37°55' W 122°25'0 0.0
2015-Jun-25 03:33N 37°55' W 122°25'0 0.0
2015-Jun-25 02:33N 37°55' W 122°25'0 0.0
2015-Jun-25 01:31N 37°55' W 122°25'0 0.0
2015-Jun-25 00:33N 37°55' W 122°25'0 0.0
2015-Jun-24 23:32N 37°55' W 122°25'0 0.0
2015-Jun-24 22:33N 37°55' W 122°25'0 0.0
2015-Jun-24 21:33N 37°55' W 122°25'0 0.0
2015-Jun-24 20:33N 37°55' W 122°25'0 0.0
2015-Jun-24 19:32N 37°55' W 122°25'0 0.0
2015-Jun-24 18:33N 37°55' W 122°25'0 0.0
2015-Jun-24 17:33N 37°55' W 122°25'0 0.0
2015-Jun-24 16:33N 37°55' W 122°25'0 0.0
2015-Jun-24 15:34N 37°55' W 122°25'0 0.0
2015-Jun-24 14:34N 37°55' W 122°25'0 0.0
2015-Jun-24 13:33N 37°55' W 122°25'0 0.0
2015-Jun-24 12:33N 37°55' W 122°25'0 0.0
2015-Jun-24 11:33N 37°55' W 122°25'0 0.1
2015-Jun-24 10:29N 37°55' W 122°25'2 2.4
2015-Jun-24 09:33N 37°55' W 122°22'0 0.0
2015-Jun-24 08:33N 37°55' W 122°22'0 0.0
2015-Jun-24 07:33N 37°55' W 122°22'0 0.0
2015-Jun-24 06:33N 37°55' W 122°22'0 0.0
2015-Jun-24 05:33N 37°55' W 122°22'0 0.0
2015-Jun-24 04:33N 37°55' W 122°22'0 0.0
2015-Jun-24 03:34N 37°55' W 122°22'0 0.0
2015-Jun-24 02:33N 37°55' W 122°22'0 0.0
2015-Jun-24 01:33N 37°55' W 122°22'0 0.0
2015-Jun-24 00:33N 37°55' W 122°22'0 0.0
2015-Jun-23 23:33N 37°55' W 122°22'0 0.0
2015-Jun-23 22:33N 37°55' W 122°22'0 0.0
2015-Jun-23 21:33N 37°55' W 122°22'0 0.0
2015-Jun-23 20:33N 37°55' W 122°22'0 0.0
2015-Jun-23 19:33N 37°55' W 122°22'0 0.0
2015-Jun-23 19:06N 37°55' W 122°22'  
Track history (hours):
 
Tides and Currents Weather Stations Pressure Air Temp Water Temp Dewpoint Dewpoint Depression Visibility Wind Speed Wind Dir Waves Ship Positions

Eagle

Owner: Harley Marine Services, INC, SEATTLE, WA. More information available from US FCC via Universal Licensing System and Coast Guard Vessel Documentation Center.

Last reported at 2015-Jul-03 12:31 UTC. Time now 2015-Jul-03 17:18 UTC.
Position N 33°47' W 118°38'.

Length 32 m; draft 4 m.

Type: Tow > 200 m length. MMSI: 366978690.

Date/timePositionNaut miles runAvg speedWind from/ knotsBaromVisibWave heightAir tempDewpointWater temp
2015-Jul-03 12:31N 33°47' W 118°38'9 7.2
2015-Jul-03 11:15N 33°43' W 118°29'5 7.2
2015-Jul-03 10:33N 33°40' W 118°23'6 5.8
2015-Jul-03 09:34N 33°39' W 118°17'4 4.2
2015-Jul-03 08:33N 33°43' W 118°15'3 2.6
2015-Jul-03 07:33N 33°45' W 118°16'0 0.0
2015-Jul-03 06:33N 33°45' W 118°16'0 0.0
2015-Jul-03 05:34N 33°45' W 118°16'0 0.0
2015-Jul-03 04:34N 33°45' W 118°16'0 0.0
2015-Jul-03 03:33N 33°45' W 118°16'0 0.0
2015-Jul-03 02:33N 33°45' W 118°16'0 0.0
2015-Jul-03 01:33N 33°45' W 118°16'0 0.0
2015-Jul-03 00:33N 33°45' W 118°16'0 0.0
2015-Jul-02 23:33N 33°45' W 118°16'0 0.0
2015-Jul-02 22:33N 33°45' W 118°16'0 0.0
2015-Jul-02 21:33N 33°45' W 118°16'0 0.0
2015-Jul-02 20:34N 33°45' W 118°16'0 0.0
2015-Jul-02 19:34N 33°45' W 118°16'0 0.0
2015-Jul-02 18:33N 33°45' W 118°16'0 0.0
2015-Jul-02 17:33N 33°45' W 118°16'0 0.0
2015-Jul-02 16:34N 33°45' W 118°16'0 0.0
2015-Jul-02 15:33N 33°45' W 118°16'0 0.0
2015-Jul-02 14:34N 33°45' W 118°16'0 0.0
2015-Jul-02 13:33N 33°45' W 118°16'0 0.0
2015-Jul-02 12:34N 33°45' W 118°16'0 0.0
2015-Jul-02 11:33N 33°45' W 118°16'0 0.0
2015-Jul-02 10:33N 33°45' W 118°16'0 0.0
2015-Jul-02 09:34N 33°45' W 118°16'0 0.0
2015-Jul-02 08:34N 33°45' W 118°16'0 0.0
2015-Jul-02 07:33N 33°45' W 118°16'0 0.0
2015-Jul-02 06:33N 33°45' W 118°16'0 0.0
2015-Jul-02 05:34N 33°45' W 118°16'0 0.0
2015-Jul-02 04:33N 33°45' W 118°16'0 0.0
2015-Jul-02 03:33N 33°45' W 118°16'0 0.0
2015-Jul-02 02:34N 33°45' W 118°16'0 0.0
2015-Jul-02 01:34N 33°45' W 118°16'0 0.0
2015-Jul-02 00:33N 33°45' W 118°16'0 0.0
2015-Jul-01 23:33N 33°45' W 118°16'0 0.0
2015-Jul-01 22:33N 33°45' W 118°16'0 0.0
2015-Jul-01 21:33N 33°45' W 118°16'0 0.0
2015-Jul-01 20:33N 33°45' W 118°16'0 0.0
2015-Jul-01 19:33N 33°45' W 118°16'0 0.0
2015-Jul-01 18:34N 33°45' W 118°16'0 0.0
2015-Jul-01 17:33N 33°45' W 118°16'0 0.0
2015-Jul-01 16:34N 33°45' W 118°16'0 0.0
2015-Jul-01 15:34N 33°45' W 118°16'0 0.0
2015-Jul-01 14:33N 33°45' W 118°16'0 0.0
2015-Jul-01 13:33N 33°45' W 118°16'0 0.0
2015-Jul-01 12:33N 33°45' W 118°16'0 0.0
2015-Jul-01 11:33N 33°45' W 118°16'0 0.0
2015-Jul-01 10:33N 33°45' W 118°16'0 0.0
2015-Jul-01 09:34N 33°45' W 118°16'0 0.0
2015-Jul-01 08:33N 33°45' W 118°16'0 0.0
2015-Jul-01 07:33N 33°45' W 118°16'0 0.0
2015-Jul-01 06:33N 33°45' W 118°16'0 0.0
2015-Jul-01 05:33N 33°45' W 118°16'0 0.0
2015-Jul-01 04:34N 33°45' W 118°16'0 0.0
2015-Jul-01 03:33N 33°45' W 118°16'0 0.0
2015-Jul-01 02:33N 33°45' W 118°16'0 0.0
2015-Jul-01 01:34N 33°45' W 118°16'0 0.0
2015-Jul-01 00:33N 33°45' W 118°16'0 0.0
2015-Jun-30 23:33N 33°45' W 118°16'0 0.0
2015-Jun-30 22:33N 33°45' W 118°16'0 0.0
2015-Jun-30 21:33N 33°45' W 118°16'0 0.0
2015-Jun-30 20:33N 33°45' W 118°16'0 0.0
2015-Jun-30 19:33N 33°45' W 118°16'0 0.0
2015-Jun-30 18:33N 33°45' W 118°16'0 0.0
2015-Jun-30 17:33N 33°45' W 118°16'0 0.0
2015-Jun-30 16:33N 33°45' W 118°16'0 0.0
2015-Jun-30 15:33N 33°45' W 118°16'0 0.0
2015-Jun-30 14:33N 33°45' W 118°16'0 0.0
2015-Jun-30 13:33N 33°45' W 118°16'0 0.0
2015-Jun-30 12:33N 33°45' W 118°16'0 0.0
2015-Jun-30 11:33N 33°45' W 118°16'0 0.0
2015-Jun-30 10:33N 33°45' W 118°16'0 0.0
2015-Jun-30 09:33N 33°45' W 118°16'0 0.0
2015-Jun-30 08:33N 33°45' W 118°16'0 0.0
2015-Jun-30 07:33N 33°45' W 118°16'0 0.0
2015-Jun-30 06:33N 33°45' W 118°16'0 0.0
2015-Jun-30 05:33N 33°45' W 118°16'0 0.0
2015-Jun-30 04:33N 33°45' W 118°16'0 0.0
2015-Jun-30 03:33N 33°45' W 118°16'0 0.0
2015-Jun-30 02:33N 33°45' W 118°16'0 0.0
2015-Jun-30 01:33N 33°45' W 118°16'0 0.0
2015-Jun-30 00:33N 33°45' W 118°16'0 0.0
2015-Jun-29 23:33N 33°45' W 118°16'0 0.0
2015-Jun-29 22:33N 33°45' W 118°16'0 0.0
2015-Jun-29 21:33N 33°45' W 118°16'0 0.0
2015-Jun-29 20:33N 33°45' W 118°16'1 0.8
2015-Jun-29 19:33N 33°45' W 118°17'1 1.0
2015-Jun-29 18:33N 33°44' W 118°16'0 0.0
2015-Jun-29 17:33N 33°44' W 118°16'0 0.0
2015-Jun-29 16:33N 33°44' W 118°16'0 0.0
2015-Jun-29 15:33N 33°44' W 118°16'0 0.0
2015-Jun-29 14:33N 33°44' W 118°16'0 0.0
2015-Jun-29 13:33N 33°44' W 118°16'0 0.0
2015-Jun-29 12:33N 33°44' W 118°16'0 0.0
2015-Jun-29 11:33N 33°44' W 118°16'0 0.0
2015-Jun-29 10:33N 33°44' W 118°16'0 0.0
2015-Jun-29 09:33N 33°44' W 118°16'0 0.0
2015-Jun-29 08:33N 33°44' W 118°16'0 0.0
2015-Jun-29 07:33N 33°44' W 118°16'0 0.0
2015-Jun-29 06:33N 33°44' W 118°16'0 0.0
2015-Jun-29 05:33N 33°44' W 118°16'0 0.0
2015-Jun-29 04:33N 33°44' W 118°16'0 0.0
2015-Jun-29 03:33N 33°44' W 118°16'0 0.0
2015-Jun-29 02:33N 33°44' W 118°16'0 0.1
2015-Jun-29 01:33N 33°44' W 118°16'0 0.0
2015-Jun-29 00:33N 33°44' W 118°16'0 0.0
2015-Jun-28 23:33N 33°44' W 118°16'0 0.1
2015-Jun-28 22:33N 33°44' W 118°16'0 0.0
2015-Jun-28 21:33N 33°44' W 118°16'0 0.0
2015-Jun-28 20:33N 33°44' W 118°16'0 0.0
2015-Jun-28 19:33N 33°44' W 118°16'0 0.0
2015-Jun-28 18:33N 33°44' W 118°16'0 0.0
2015-Jun-28 17:33N 33°44' W 118°16'0 0.0
2015-Jun-28 16:32N 33°44' W 118°16'0 0.0
2015-Jun-28 15:33N 33°44' W 118°16'0 0.0
2015-Jun-28 13:24N 33°44' W 118°16'0 0.0
2015-Jun-28 11:26N 33°44' W 118°16'2 2.5
2015-Jun-28 10:33N 33°42' W 118°15'5 4.2
2015-Jun-28 09:26N 33°37' W 118°16'6 5.5
2015-Jun-28 08:23N 33°37' W 118°23'1 0.9
2015-Jun-28 07:07N 33°37' W 118°24'3 4.7
2015-Jun-28 06:33N 33°39' W 118°27'7 5.2
2015-Jun-28 05:09N 33°42' W 118°34'3 5.6
2015-Jun-28 04:33N 33°44' W 118°38'11 5.7
2015-Jun-28 02:33N 33°50' W 118°50'5 4.6
2015-Jun-28 01:33N 33°52' W 118°55'3 1.0
2015-Jun-27 22:06N 33°55' W 118°55'2 3.1
2015-Jun-27 21:33N 33°54' W 118°54'2 2.1
2015-Jun-27 20:33N 33°52' W 118°55'6 4.9
2015-Jun-27 19:17N 33°55' W 119°02'4 5.1
2015-Jun-27 18:33N 33°57' W 119°06'5 5.2
2015-Jun-27 17:33N 33°60' W 119°11'5 5.2
2015-Jun-27 16:32N 34°02' W 119°16'146 5.8
2015-Jun-26 15:24N 35°24' W 121°44'6 6.6
2015-Jun-26 14:32N 35°28' W 121°48'7 6.8
2015-Jun-26 13:27N 35°34' W 121°53'8 6.6
2015-Jun-26 12:10N 35°41' W 121°59'4 6.9
2015-Jun-26 11:33N 35°44' W 122°02'7 7.3
2015-Jun-26 10:33N 35°50' W 122°08'7 6.6
2015-Jun-26 09:32N 35°56' W 122°12'6 6.3
2015-Jun-26 08:33N 36°01' W 122°17'7 6.6
2015-Jun-26 07:33N 36°06' W 122°22'7 6.7
2015-Jun-26 06:33N 36°11' W 122°26'6 6.2
2015-Jun-26 05:33N 36°17' W 122°31'6 6.2
2015-Jun-26 04:33N 36°22' W 122°34'6 6.0
2015-Jun-26 03:33N 36°28' W 122°37'6 6.0
2015-Jun-26 02:33N 36°33' W 122°40'6 6.1
2015-Jun-26 01:33N 36°39' W 122°43'7 6.5
2015-Jun-26 00:33N 36°45' W 122°47'6 6.5
2015-Jun-25 23:33N 36°51' W 122°50'6 6.4
2015-Jun-25 22:33N 36°56' W 122°53'6 6.4
2015-Jun-25 21:33N 37°02' W 122°56'7 6.4
2015-Jun-25 20:32N 37°08' W 122°59'6 6.0
2015-Jun-25 19:33N 37°14' W 123°01'6 6.2
2015-Jun-25 18:33N 37°20' W 123°04'8 6.5
2015-Jun-25 17:18N 37°27' W 123°08'5 6.0
2015-Jun-25 16:32N 37°31' W 123°06'5 5.4
2015-Jun-25 15:33N 37°35' W 123°02'5 5.1
2015-Jun-25 14:33N 37°38' W 122°57'5 5.4
2015-Jun-25 13:33N 37°41' W 122°51'5 5.1
2015-Jun-25 12:31N 37°44' W 122°45'5 4.9
2015-Jun-25 11:33N 37°46' W 122°40'5 4.7
2015-Jun-25 10:33N 37°47' W 122°34'5 5.4
2015-Jun-25 09:33N 37°49' W 122°28'5 4.6
2015-Jun-25 08:33N 37°54' W 122°25'2 1.7
2015-Jun-25 07:32N 37°55' W 122°25'0 0.0
2015-Jun-25 06:32N 37°55' W 122°25'0 0.1
2015-Jun-25 05:33N 37°55' W 122°25'0 0.0
2015-Jun-25 04:33N 37°55' W 122°25'0 0.0
2015-Jun-25 03:33N 37°55' W 122°25'0 0.0
2015-Jun-25 02:33N 37°55' W 122°25'0 0.0
2015-Jun-25 01:31N 37°55' W 122°25'0 0.0
2015-Jun-25 00:33N 37°55' W 122°25'0 0.0
2015-Jun-24 23:32N 37°55' W 122°25'0 0.0
2015-Jun-24 22:33N 37°55' W 122°25'0 0.0
2015-Jun-24 21:33N 37°55' W 122°25'0 0.0
2015-Jun-24 20:33N 37°55' W 122°25'0 0.0
2015-Jun-24 19:32N 37°55' W 122°25'0 0.0
2015-Jun-24 18:33N 37°55' W 122°25'0 0.0
2015-Jun-24 17:33N 37°55' W 122°25'0 0.0
2015-Jun-24 16:33N 37°55' W 122°25'0 0.0
2015-Jun-24 15:34N 37°55' W 122°25'0 0.0
2015-Jun-24 14:34N 37°55' W 122°25'0 0.0
2015-Jun-24 13:33N 37°55' W 122°25'0 0.0
2015-Jun-24 12:33N 37°55' W 122°25'0 0.0
2015-Jun-24 11:33N 37°55' W 122°25'0 0.1
2015-Jun-24 10:29N 37°55' W 122°25'2 2.4
2015-Jun-24 09:33N 37°55' W 122°22'0 0.0
2015-Jun-24 08:33N 37°55' W 122°22'0 0.0
2015-Jun-24 07:33N 37°55' W 122°22'0 0.0
2015-Jun-24 06:33N 37°55' W 122°22'0 0.0
2015-Jun-24 05:33N 37°55' W 122°22'0 0.0
2015-Jun-24 04:33N 37°55' W 122°22'0 0.0
2015-Jun-24 03:34N 37°55' W 122°22'0 0.0
2015-Jun-24 02:33N 37°55' W 122°22'0 0.0
2015-Jun-24 01:33N 37°55' W 122°22'0 0.0
2015-Jun-24 00:33N 37°55' W 122°22'0 0.0
2015-Jun-23 23:33N 37°55' W 122°22'0 0.0
2015-Jun-23 22:33N 37°55' W 122°22'0 0.0
2015-Jun-23 21:33N 37°55' W 122°22'0 0.0
2015-Jun-23 20:33N 37°55' W 122°22'0 0.0
2015-Jun-23 19:33N 37°55' W 122°22'0 0.0
2015-Jun-23 19:06N 37°55' W 122°22'  

Dump ship's entire track history